Time;durP1;ratioP1;P1;durP2;ratioP2;P2;SDS_P1;SDS_P2;PMS_P1;PMS_P2;Temp;Humidity;BMP_temperature;BMP_pressure;BME280_temperature;BME280_humidity;BME280_pressure;Samples;Min_cycle;Max_cycle;Signal;HPM_P1;HPM_P2
2022/11/25 00:01:19;;;;;;;16.05;3.20;;;9.70;99.90;;;;;;6170988;23;20179;-85
2022/11/25 00:03:45;;;;;;;14.88;3.20;;;9.70;99.90;;;;;;6221146;23;20414;-85
2022/11/25 00:06:19;;;;;;;18.73;3.13;;;9.70;99.90;;;;;;6247787;22;20001;-85
2022/11/25 00:08:46;;;;;;;22.75;4.07;;;9.70;99.90;;;;;;6247818;23;20007;-85
2022/11/25 00:11:13;;;;;;;15.07;4.15;;;9.70;99.90;;;;;;6221091;23;20082;-83
2022/11/25 00:13:44;;;;;;;12.57;2.78;;;9.70;99.90;;;;;;6221107;23;20479;-83
2022/11/25 00:16:12;;;;;;;13.57;2.97;;;9.70;99.90;;;;;;6220957;23;20035;-84
2022/11/25 00:18:39;;;;;;;18.48;3.38;;;9.70;99.90;;;;;;6220705;23;20007;-84
2022/11/25 00:21:09;;;;;;;19.55;3.58;;;9.60;99.90;;;;;;6247953;23;20099;-85
2022/11/25 00:23:36;;;;;;;17.67;3.22;;;9.60;99.90;;;;;;6220854;23;20470;-85
2022/11/25 00:26:21;;;;;;;16.25;3.65;;;9.60;99.90;;;;;;6220416;23;20000;-85
2022/11/25 00:28:48;;;;;;;15.48;3.28;;;9.60;99.90;;;;;;6220489;23;20005;-85
2022/11/25 00:31:20;;;;;;;18.33;3.08;;;9.50;99.90;;;;;;6195638;23;20031;-85
2022/11/25 00:33:46;;;;;;;14.65;3.42;;;9.50;99.90;;;;;;6220299;23;20043;-85
2022/11/25 00:36:26;;;;;;;14.30;3.70;;;9.50;99.90;;;;;;6247141;22;20027;-85
2022/11/25 00:39:01;;;;;;;19.02;3.72;;;9.50;99.90;;;;;;6220678;23;20497;-85
2022/11/25 00:46:58;;;;;;;18.95;3.45;;;9.40;99.90;;;;;;6247925;23;20015;-85
2022/11/25 00:49:24;;;;;;;14.68;2.90;;;9.40;99.90;;;;;;6220682;23;20052;-84
2022/11/25 00:51:50;;;;;;;16.02;2.95;;;9.40;99.90;;;;;;6171067;23;20009;-84
2022/11/25 00:54:18;;;;;;;13.55;3.60;;;9.40;99.90;;;;;;6195861;23;20004;-85
2022/11/25 00:56:44;;;;;;;14.98;3.65;;;9.30;99.90;;;;;;6171875;23;20012;-85
2022/11/25 00:59:10;;;;;;;16.73;3.42;;;9.30;99.90;;;;;;6195624;23;20061;-85
2022/11/25 01:01:36;;;;;;;16.48;4.03;;;9.30;99.90;;;;;;6194958;23;20012;-85
2022/11/25 01:04:02;;;;;;;14.55;3.08;;;9.30;99.90;;;;;;6197767;23;20007;-86
2022/11/25 01:06:28;;;;;;;20.15;4.28;;;9.30;99.90;;;;;;6222876;23;20079;-87
2022/11/25 01:08:54;;;;;;;19.17;3.42;;;9.30;99.90;;;;;;6171352;23;20008;-87
2022/11/25 01:11:22;;;;;;;13.75;3.45;;;9.30;99.90;;;;;;6196151;23;20070;-86
2022/11/25 01:13:48;;;;;;;20.85;3.22;;;9.30;99.90;;;;;;6220921;23;20082;-87
2022/11/25 01:16:17;;;;;;;16.98;4.00;;;9.30;99.90;;;;;;6190355;23;20339;-86
2022/11/25 01:18:44;;;;;;;16.27;2.97;;;9.30;99.90;;;;;;6213693;23;20420;-87
2022/11/25 01:21:16;;;;;;;16.63;2.92;;;9.20;99.90;;;;;;6214436;23;20067;-86
2022/11/25 01:23:42;;;;;;;17.60;3.25;;;9.30;99.90;;;;;;6215055;23;20013;-85
2022/11/25 01:26:11;;;;;;;14.23;2.90;;;9.20;99.90;;;;;;6215637;23;20036;-86
2022/11/25 01:28:37;;;;;;;15.27;4.30;;;9.20;99.90;;;;;;6216533;23;20000;-86
2022/11/25 01:31:07;;;;;;;15.60;2.63;;;9.30;99.90;;;;;;6190245;23;20008;-85
2022/11/25 01:33:34;;;;;;;17.23;3.10;;;9.20;99.90;;;;;;6215007;23;20000;-86
2022/11/25 01:36:01;;;;;;;9.77;2.75;;;9.30;99.90;;;;;;6215626;23;19996;-85
2022/11/25 01:38:27;;;;;;;14.90;3.40;;;9.30;99.90;;;;;;6215406;23;20000;-85
2022/11/25 01:40:53;;;;;;;18.73;3.15;;;9.30;99.90;;;;;;6216363;23;20095;-85
2022/11/25 01:43:18;;;;;;;14.55;2.90;;;9.30;99.90;;;;;;6189395;23;20036;-85
2022/11/25 01:45:44;;;;;;;17.05;3.38;;;9.30;99.90;;;;;;6214946;23;20005;-84
2022/11/25 01:48:19;;;;;;;17.27;2.90;;;9.30;99.90;;;;;;6190012;23;20015;-85
2022/11/25 01:50:47;;;;;;;18.30;3.20;;;9.30;99.90;;;;;;6214689;23;20411;-85
2022/11/25 01:53:15;;;;;;;15.75;3.45;;;9.30;99.90;;;;;;6216395;23;19997;-85
2022/11/25 01:55:46;;;;;;;22.50;3.35;;;9.30;99.90;;;;;;6214778;23;20005;-85
2022/11/25 01:58:16;;;;;;;14.93;3.38;;;9.30;99.90;;;;;;6215106;23;20525;-85
2022/11/25 02:00:49;;;;;;;19.13;2.85;;;9.40;99.90;;;;;;6214197;23;20008;-85
2022/11/25 02:03:22;;;;;;;12.57;2.83;;;9.30;99.90;;;;;;6215112;23;20005;-85
2022/11/25 02:05:56;;;;;;;16.23;2.97;;;9.40;99.90;;;;;;6214915;23;20075;-85
2022/11/25 02:08:23;;;;;;;17.40;3.38;;;9.40;99.90;;;;;;6214594;23;20103;-84
2022/11/25 02:10:52;;;;;;;16.77;4.13;;;9.40;99.90;;;;;;6214000;23;20343;-85
2022/11/25 02:13:19;;;;;;;14.85;2.47;;;9.40;99.90;;;;;;6214813;23;20315;-85
2022/11/25 02:15:45;;;;;;;18.88;3.17;;;9.40;99.90;;;;;;6189188;23;20023;-85
2022/11/25 02:18:10;;;;;;;14.30;3.20;;;9.40;99.90;;;;;;6214809;23;20008;-85
2022/11/25 02:20:38;;;;;;;20.60;3.83;;;9.40;99.90;;;;;;6214179;23;20012;-86
2022/11/25 02:23:26;;;;;;;15.88;3.10;;;9.40;99.90;;;;;;6214701;23;20453;-85
2022/11/25 02:25:53;;;;;;;15.02;3.75;;;9.40;99.90;;;;;;6214567;23;20390;-86
2022/11/25 02:28:21;;;;;;;15.27;3.63;;;9.40;99.90;;;;;;6214817;23;20067;-85
2022/11/25 02:30:47;;;;;;;15.77;2.88;;;9.40;99.90;;;;;;6214308;23;20000;-85
2022/11/25 02:33:14;;;;;;;16.13;2.63;;;9.40;99.90;;;;;;6189793;23;20100;-84
2022/11/25 02:36:06;;;;;;;15.68;3.13;;;9.50;99.90;;;;;;6215862;23;20001;-86
2022/11/25 02:38:46;;;;;;;13.85;3.00;;;9.40;99.90;;;;;;6216183;23;20088;-85
2022/11/25 02:41:16;;;;;;;16.95;3.85;;;9.40;99.90;;;;;;6214571;23;20011;-85
2022/11/25 02:43:41;;;;;;;23.63;3.58;;;9.40;99.90;;;;;;6214265;23;20004;-86
2022/11/25 02:46:10;;;;;;;12.82;2.60;;;9.40;99.90;;;;;;6214794;23;20423;-85
2022/11/25 02:48:37;;;;;;;15.73;2.95;;;9.40;99.90;;;;;;6215879;23;20419;-85
2022/11/25 02:51:05;;;;;;;13.02;2.65;;;9.40;99.90;;;;;;6214092;23;20016;-84
2022/11/25 02:53:31;;;;;;;15.35;3.30;;;9.50;99.90;;;;;;6214267;23;20051;-85
2022/11/25 02:55:57;;;;;;;12.38;3.03;;;9.40;99.90;;;;;;6164261;23;20005;-85
2022/11/25 02:58:23;;;;;;;14.90;2.90;;;9.50;99.90;;;;;;6189350;23;20312;-85
2022/11/25 03:00:48;;;;;;;14.55;3.10;;;9.50;99.90;;;;;;6189213;23;20017;-85
2022/11/25 03:03:15;;;;;;;16.40;3.15;;;9.50;99.90;;;;;;6189751;23;20367;-86
2022/11/25 03:05:41;;;;;;;15.40;2.58;;;9.50;99.90;;;;;;6214495;23;20001;-86
2022/11/25 03:08:07;;;;;;;18.00;3.22;;;9.50;99.90;;;;;;6189399;23;20015;-86
2022/11/25 03:10:33;;;;;;;16.00;3.70;;;9.50;99.90;;;;;;6215700;23;20012;-86
2022/11/25 03:12:59;;;;;;;15.30;2.92;;;9.50;99.90;;;;;;6214264;23;20442;-85
2022/11/25 03:15:25;;;;;;;17.85;3.33;;;9.60;99.90;;;;;;6234617;23;20445;-86
2022/11/25 03:17:51;;;;;;;13.55;3.75;;;9.60;99.90;;;;;;6219034;23;20083;-85
2022/11/25 03:20:18;;;;;;;17.20;3.65;;;9.70;99.90;;;;;;6219171;23;20078;-86
2022/11/25 03:22:44;;;;;;;17.88;3.15;;;9.70;99.90;;;;;;6219364;23;20419;-88
2022/11/25 03:25:11;;;;;;;20.00;2.78;;;9.80;99.90;;;;;;6194449;23;20375;-86
2022/11/25 03:27:38;;;;;;;18.05;3.08;;;9.80;99.90;;;;;;6219617;23;20406;-86
2022/11/25 03:30:06;;;;;;;18.23;3.13;;;9.80;99.90;;;;;;6194537;23;20334;-87
2022/11/25 03:32:31;;;;;;;17.45;3.10;;;9.90;99.90;;;;;;6220055;23;20449;-87
2022/11/25 03:34:57;;;;;;;14.52;2.63;;;9.90;99.90;;;;;;6220153;23;20000;-87
2022/11/25 03:37:23;;;;;;;17.63;3.30;;;9.90;99.90;;;;;;6195086;23;20004;-87
2022/11/25 03:39:49;;;;;;;19.50;3.08;;;9.80;99.90;;;;;;6194160;23;20308;-86
2022/11/25 03:42:14;;;;;;;15.68;4.13;;;9.80;99.90;;;;;;6219991;23;20012;-87
2022/11/25 03:44:40;;;;;;;18.73;3.20;;;9.90;99.90;;;;;;6194557;23;20418;-87
2022/11/25 03:47:06;;;;;;;21.58;3.63;;;9.90;99.90;;;;;;6219482;23;20004;-87
2022/11/25 03:49:31;;;;;;;26.48;4.35;;;9.90;99.90;;;;;;6194291;23;20001;-87
2022/11/25 03:51:57;;;;;;;20.67;3.55;;;9.90;99.90;;;;;;6194628;23;20004;-87
2022/11/25 03:54:23;;;;;;;16.05;3.17;;;9.90;99.90;;;;;;6219256;23;20426;-87
2022/11/25 03:56:49;;;;;;;15.35;3.00;;;9.90;99.90;;;;;;6220135;23;20004;-87
2022/11/25 03:59:18;;;;;;;18.77;3.33;;;9.90;99.90;;;;;;6170417;23;20499;-87
2022/11/25 04:01:43;;;;;;;17.10;3.20;;;9.80;99.90;;;;;;6195126;23;20020;-87
2022/11/25 04:04:09;;;;;;;17.17;3.65;;;9.80;99.90;;;;;;6194096;23;20008;-87
2022/11/25 04:06:34;;;;;;;16.42;3.95;;;9.80;99.90;;;;;;6169791;23;20455;-88
2022/11/25 04:09:00;;;;;;;16.50;3.35;;;9.80;99.90;;;;;;6219064;23;20004;-87
2022/11/25 04:12:45;;;;;;;21.27;3.25;;;9.80;99.90;;;;;;6195076;23;20012;-87
2022/11/25 04:14:12;;;;;;;19.35;3.10;;;9.80;99.90;;;;;;6223191;23;20074;-87
2022/11/25 04:16:37;;;;;;;18.23;3.30;;;9.80;99.90;;;;;;6194148;23;20012;-87
2022/11/25 04:19:03;;;;;;;17.10;2.85;;;9.80;99.90;;;;;;6245332;23;20004;-87
2022/11/25 04:21:29;;;;;;;17.17;3.45;;;9.80;99.90;;;;;;6219654;23;20016;-86
2022/11/25 04:23:55;;;;;;;13.48;2.78;;;9.80;99.90;;;;;;6169287;23;20091;-87
2022/11/25 04:26:21;;;;;;;16.40;3.42;;;9.80;99.90;;;;;;6194257;23;20327;-86
2022/11/25 04:28:46;;;;;;;19.48;2.88;;;9.80;99.90;;;;;;6220520;23;20373;-87
2022/11/25 04:31:15;;;;;;;17.40;3.00;;;9.80;99.90;;;;;;6193656;23;20018;-87
2022/11/25 04:33:40;;;;;;;15.85;3.03;;;9.80;99.90;;;;;;6219199;23;20004;-86
2022/11/25 04:36:09;;;;;;;14.77;3.50;;;9.80;99.90;;;;;;6247611;22;20065;-86
2022/11/25 04:38:37;;;;;;;21.67;3.17;;;9.80;99.90;;;;;;6221632;23;20000;-86
2022/11/25 04:41:03;;;;;;;14.93;3.20;;;9.80;99.90;;;;;;6195611;23;20018;-86
2022/11/25 04:43:28;;;;;;;16.83;3.47;;;9.80;99.90;;;;;;6171892;23;20032;-87
2022/11/25 04:45:54;;;;;;;21.25;3.00;;;9.80;99.90;;;;;;6171059;23;20004;-88
2022/11/25 04:48:20;;;;;;;20.55;3.25;;;9.80;99.90;;;;;;6196282;23;20000;-86
2022/11/25 04:50:46;;;;;;;15.68;3.53;;;9.80;99.90;;;;;;6220906;23;20062;-87
2022/11/25 04:53:12;;;;;;;15.45;3.35;;;9.80;99.90;;;;;;6195199;23;20430;-87
2022/11/25 04:55:37;;;;;;;14.05;3.60;;;9.80;99.90;;;;;;6220327;23;20008;-88
2022/11/25 04:58:03;;;;;;;18.52;3.97;;;9.80;99.90;;;;;;6195867;23;20007;-88
2022/11/25 05:00:29;;;;;;;14.07;3.55;;;9.80;99.90;;;;;;6195853;23;20087;-87
2022/11/25 05:02:54;;;;;;;15.55;3.45;;;9.90;99.90;;;;;;6221662;23;20014;-86
2022/11/25 05:05:20;;;;;;;13.13;3.67;;;9.90;99.90;;;;;;6195407;23;20396;-87
2022/11/25 05:07:46;;;;;;;16.88;3.20;;;9.90;99.90;;;;;;6220850;23;20000;-86
2022/11/25 05:10:12;;;;;;;16.42;3.53;;;9.90;99.90;;;;;;6220578;23;20011;-87
2022/11/25 05:12:40;;;;;;;21.50;3.88;;;9.90;99.90;;;;;;6195992;23;20004;-88
2022/11/25 05:15:07;;;;;;;17.08;3.03;;;9.90;99.90;;;;;;6220410;23;20044;-88
2022/11/25 05:17:33;;;;;;;26.40;3.95;;;9.90;99.90;;;;;;6220591;23;20062;-87
2022/11/25 05:19:59;;;;;;;10.05;3.05;;;9.90;99.90;;;;;;6195726;23;20011;-87
2022/11/25 05:22:29;;;;;;;15.45;2.90;;;10.00;99.90;;;;;;6220207;23;20008;-88
2022/11/25 05:24:55;;;;;;;18.17;3.22;;;10.00;99.90;;;;;;6220947;23;20004;-87
2022/11/25 05:27:21;;;;;;;17.25;2.72;;;10.00;99.90;;;;;;6220509;23;20437;-88
2022/11/25 05:29:47;;;;;;;16.33;2.80;;;10.00;99.90;;;;;;6219914;23;20028;-87
2022/11/25 05:32:13;;;;;;;18.73;3.25;;;10.00;99.90;;;;;;6220305;23;20011;-87
2022/11/25 05:34:40;;;;;;;13.00;3.00;;;10.00;99.90;;;;;;6195419;23;20009;-87
2022/11/25 05:37:09;;;;;;;11.52;2.78;;;10.00;99.90;;;;;;6220044;23;20419;-87
2022/11/25 05:39:35;;;;;;;11.70;2.75;;;10.00;99.90;;;;;;6247207;22;20000;-87
2022/11/25 05:42:01;;;;;;;10.93;2.20;;;9.90;99.90;;;;;;6219702;23;20015;-89
2022/11/25 05:44:26;;;;;;;9.00;2.17;;;10.00;99.90;;;;;;6220501;23;20000;-87
2022/11/25 05:46:52;;;;;;;12.93;2.00;;;9.90;99.90;;;;;;6220782;23;20011;-87
2022/11/25 05:49:19;;;;;;;8.00;2.05;;;9.90;99.90;;;;;;6220116;23;20000;-87
2022/11/25 05:51:45;;;;;;;8.75;1.80;;;10.00;99.90;;;;;;6247209;22;20008;-87
2022/11/25 05:54:19;;;;;;;14.35;3.13;;;10.00;99.90;;;;;;6246819;22;20046;-86
2022/11/25 05:56:45;;;;;;;9.13;2.20;;;10.00;99.90;;;;;;6220503;23;20000;-87
2022/11/25 05:59:13;;;;;;;11.27;2.25;;;10.00;99.90;;;;;;6194838;23;20023;-86
2022/11/25 06:01:39;;;;;;;11.13;2.28;;;10.00;99.90;;;;;;6195757;23;20012;-87
2022/11/25 06:04:08;;;;;;;9.07;2.10;;;9.90;99.90;;;;;;6220393;23;20379;-88
2022/11/25 06:06:37;;;;;;;11.65;2.40;;;9.90;99.90;;;;;;6221087;23;20441;-87
2022/11/25 06:09:03;;;;;;;7.32;1.83;;;9.90;99.90;;;;;;6171149;23;20449;-88
2022/11/25 06:11:29;;;;;;;8.77;1.90;;;9.90;99.90;;;;;;6220217;23;20008;-88
2022/11/25 06:13:57;;;;;;;11.25;2.85;;;9.90;99.90;;;;;;6220884;23;20411;-87
2022/11/25 06:16:23;;;;;;;7.63;1.80;;;9.80;99.90;;;;;;6246712;22;20122;-87
2022/11/25 06:18:52;;;;;;;12.88;2.95;;;9.80;99.90;;;;;;6219976;23;20004;-87
2022/11/25 06:21:17;;;;;;;11.98;2.47;;;9.80;99.90;;;;;;6246748;22;20053;-87
2022/11/25 06:23:46;;;;;;;8.27;1.80;;;9.80;99.90;;;;;;6219685;23;20373;-88
2022/11/25 06:26:20;;;;;;;13.23;2.83;;;9.70;99.90;;;;;;6195475;23;20038;-86
2022/11/25 06:28:46;;;;;;;10.20;2.40;;;9.70;99.90;;;;;;6203102;23;20089;-87
2022/11/25 06:31:15;;;;;;;9.93;2.00;;;9.80;99.90;;;;;;6220420;23;20004;-88
2022/11/25 06:33:47;;;;;;;9.40;2.28;;;9.70;99.90;;;;;;6246244;22;20078;-88
2022/11/25 06:36:16;;;;;;;6.63;2.30;;;9.70;99.90;;;;;;6219466;23;20015;-88
2022/11/25 06:38:46;;;;;;;10.60;2.20;;;9.70;99.90;;;;;;6218547;23;20004;-88
2022/11/25 06:41:13;;;;;;;7.68;2.10;;;9.70;99.90;;;;;;6218240;23;20024;-87
2022/11/25 06:43:39;;;;;;;11.55;1.98;;;9.70;99.90;;;;;;6194400;23;20004;-87
2022/11/25 06:46:07;;;;;;;6.53;2.15;;;9.60;99.90;;;;;;6219256;23;19996;-87
2022/11/25 06:48:33;;;;;;;12.55;2.47;;;9.70;99.90;;;;;;6245926;22;20026;-87
2022/11/25 06:51:02;;;;;;;9.88;2.42;;;9.60;99.90;;;;;;6219495;23;20005;-87
2022/11/25 06:53:32;;;;;;;14.88;2.20;;;9.60;99.90;;;;;;6219727;23;20039;-87
2022/11/25 06:56:16;;;;;;;13.20;2.58;;;9.60;99.90;;;;;;6195243;23;20086;-87
2022/11/25 06:58:42;;;;;;;8.15;2.17;;;9.60;99.90;;;;;;6221685;23;20087;-87
2022/11/25 07:01:15;;;;;;;12.88;3.28;;;9.50;99.90;;;;;;6196188;23;20019;-86
2022/11/25 07:03:45;;;;;;;11.82;3.35;;;9.60;99.90;;;;;;6219030;23;20338;-87
2022/11/25 07:06:12;;;;;;;23.03;2.70;;;9.60;99.90;;;;;;6219588;23;20000;-90
2022/11/25 07:08:38;;;;;;;14.32;3.38;;;9.50;99.90;;;;;;6219596;23;20000;-84
2022/11/25 07:11:16;;;;;;;9.82;3.00;;;9.60;99.90;;;;;;6219451;23;20079;-85
2022/11/25 07:13:42;;;;;;;6.70;2.58;;;9.50;99.90;;;;;;6219447;23;20007;-86
2022/11/25 07:16:10;;;;;;;10.00;2.60;;;9.50;99.90;;;;;;6246144;22;20179;-87
2022/11/25 07:18:37;;;;;;;13.27;3.45;;;9.50;99.90;;;;;;6219539;23;20008;-86
2022/11/25 07:21:15;;;;;;;8.05;2.20;;;9.50;99.90;;;;;;6219719;23;20099;-86
2022/11/25 07:23:42;;;;;;;9.30;2.45;;;9.50;99.90;;;;;;6217242;23;20091;-86
2022/11/25 07:26:10;;;;;;;14.38;2.38;;;9.40;99.90;;;;;;6194312;23;20004;-86
2022/11/25 07:28:38;;;;;;;8.85;2.42;;;9.40;99.90;;;;;;6245668;23;20001;-87
2022/11/25 07:31:07;;;;;;;5.85;2.00;;;9.40;99.90;;;;;;6219167;23;20008;-88
2022/11/25 07:33:36;;;;;;;13.10;2.70;;;9.40;99.90;;;;;;6219449;23;20008;-86
2022/11/25 07:36:06;;;;;;;13.05;3.38;;;9.40;99.90;;;;;;6218533;23;20012;-86
2022/11/25 07:38:36;;;;;;;9.90;3.13;;;9.40;99.90;;;;;;6218974;23;20419;-86
2022/11/25 07:41:14;;;;;;;10.23;2.80;;;9.30;99.90;;;;;;6245406;22;20000;-86
2022/11/25 07:43:42;;;;;;;9.07;2.70;;;9.30;99.90;;;;;;6219283;23;20004;-86
2022/11/25 07:46:16;;;;;;;11.20;3.05;;;9.30;99.90;;;;;;6194530;23;20011;-86
2022/11/25 07:48:42;;;;;;;10.05;3.28;;;9.30;99.90;;;;;;6245610;23;20000;-86
2022/11/25 07:51:24;;;;;;;11.98;2.17;;;9.30;99.90;;;;;;6193990;23;20346;-86
2022/11/25 07:53:51;;;;;;;11.05;2.50;;;9.40;99.90;;;;;;6219216;23;20039;-86
2022/11/25 07:56:17;;;;;;;9.27;2.97;;;9.40;99.90;;;;;;6218741;23;20004;-87
2022/11/25 07:58:44;;;;;;;8.38;2.63;;;9.30;99.90;;;;;;6168922;23;20019;-85
2022/11/25 08:01:11;;;;;;;11.70;2.50;;;9.40;99.90;;;;;;6245539;23;20012;-86
2022/11/25 08:03:39;;;;;;;6.75;2.38;;;9.40;99.90;;;;;;6218587;23;20437;-86
2022/11/25 08:06:09;;;;;;;8.25;2.20;;;9.40;99.90;;;;;;6219020;23;20430;-86
2022/11/25 08:08:37;;;;;;;7.70;2.40;;;9.40;99.90;;;;;;6218446;23;20358;-86
2022/11/25 08:11:14;;;;;;;7.85;2.47;;;9.40;99.90;;;;;;6195290;23;20423;-85
2022/11/25 08:13:40;;;;;;;11.52;2.80;;;9.40;99.90;;;;;;6220415;23;20075;-84
2022/11/25 08:16:06;;;;;;;11.82;2.88;;;9.40;99.90;;;;;;6220179;23;20446;-84
2022/11/25 08:18:32;;;;;;;9.82;2.38;;;9.40;99.90;;;;;;6194858;23;20095;-84
2022/11/25 08:20:59;;;;;;;12.70;3.22;;;9.40;99.90;;;;;;6195243;23;20039;-85
2022/11/25 08:23:25;;;;;;;12.48;2.85;;;9.40;99.90;;;;;;6246684;22;20316;-84
2022/11/25 08:25:50;;;;;;;13.10;3.33;;;9.40;99.90;;;;;;6220515;23;20007;-84
2022/11/25 08:28:16;;;;;;;8.65;2.83;;;9.30;99.90;;;;;;6220463;23;20419;-84
2022/11/25 08:30:42;;;;;;;9.18;2.55;;;9.40;99.90;;;;;;6195730;23;20018;-85
2022/11/25 08:33:07;;;;;;;12.90;3.00;;;9.40;99.90;;;;;;6220507;23;20003;-84
2022/11/25 08:35:36;;;;;;;10.75;2.58;;;9.40;99.90;;;;;;6195036;23;20036;-84
2022/11/25 08:38:07;;;;;;;9.90;2.65;;;9.40;99.90;;;;;;6196013;23;20001;-85
2022/11/25 08:40:35;;;;;;;11.43;2.88;;;9.50;99.90;;;;;;6247019;23;20000;-85
2022/11/25 08:43:01;;;;;;;10.05;2.60;;;9.40;99.90;;;;;;6220645;23;20031;-85
2022/11/25 08:45:28;;;;;;;14.00;3.95;;;9.50;99.90;;;;;;6220190;23;20008;-84
2022/11/25 08:47:54;;;;;;;9.00;3.95;;;9.50;99.90;;;;;;6220197;23;20012;-85
2022/11/25 08:50:20;;;;;;;11.50;2.90;;;9.50;99.90;;;;;;6195346;23;20090;-85
2022/11/25 08:52:45;;;;;;;11.50;3.17;;;9.50;99.90;;;;;;6170225;23;20005;-84
2022/11/25 08:55:11;;;;;;;12.20;2.97;;;9.50;99.90;;;;;;6220494;23;20043;-85
2022/11/25 08:57:37;;;;;;;12.30;3.10;;;9.50;99.90;;;;;;6220258;23;20083;-84
2022/11/25 09:00:05;;;;;;;7.70;2.90;;;9.60;99.90;;;;;;6170576;23;20008;-86
2022/11/25 09:02:31;;;;;;;8.95;3.13;;;9.60;99.90;;;;;;6220308;23;20330;-85
2022/11/25 09:04:57;;;;;;;13.05;3.25;;;9.60;99.90;;;;;;6195892;23;20048;-85
2022/11/25 09:07:22;;;;;;;10.65;3.20;;;9.70;99.90;;;;;;6195042;23;20013;-84
2022/11/25 09:09:48;;;;;;;8.10;3.30;;;9.70;99.90;;;;;;6218916;23;20005;-84
2022/11/25 09:12:14;;;;;;;12.75;3.13;;;9.70;99.90;;;;;;6219868;23;20111;-83
2022/11/25 09:14:40;;;;;;;10.27;3.30;;;9.80;99.90;;;;;;6194220;23;20020;-85
2022/11/25 09:17:12;;;;;;;8.02;2.95;;;9.80;99.90;;;;;;6194650;23;20006;-85
2022/11/25 09:19:38;;;;;;;11.43;3.35;;;9.80;99.90;;;;;;6219176;23;20008;-84
2022/11/25 09:22:03;;;;;;;8.85;3.58;;;9.90;99.90;;;;;;6218709;23;20390;-85
2022/11/25 09:24:29;;;;;;;12.95;3.42;;;9.90;99.90;;;;;;6194621;23;20438;-85
2022/11/25 09:26:55;;;;;;;13.70;3.40;;;10.00;99.90;;;;;;6170092;23;20385;-85
2022/11/25 09:29:24;;;;;;;9.30;2.85;;;10.00;99.90;;;;;;6245457;22;20079;-86
2022/11/25 09:31:49;;;;;;;8.18;2.88;;;10.00;99.90;;;;;;6220027;23;20434;-84
2022/11/25 09:34:17;;;;;;;9.07;2.72;;;10.10;99.90;;;;;;6195993;23;20040;-88
2022/11/25 09:36:44;;;;;;;9.85;2.83;;;10.10;99.90;;;;;;6196076;23;20012;-85
2022/11/25 09:39:09;;;;;;;13.65;3.25;;;10.10;99.90;;;;;;6220719;23;20492;-84
2022/11/25 09:48:10;;;;;;;11.48;2.60;;;10.20;99.90;;;;;;6261208;23;20034;-84
2022/11/25 09:50:55;;;;;;;9.13;2.67;;;10.30;99.90;;;;;;6232109;23;20022;-83
2022/11/25 09:53:37;;;;;;;10.88;2.95;;;10.30;99.90;;;;;;6260713;23;19997;-84
2022/11/25 09:56:11;;;;;;;10.38;3.05;;;10.30;99.90;;;;;;6243828;23;20000;-83
2022/11/25 09:58:45;;;;;;;10.02;3.05;;;10.40;99.90;;;;;;6244313;23;20015;-83
2022/11/25 10:01:18;;;;;;;7.88;2.55;;;10.40;99.90;;;;;;6241853;23;20008;-82
2022/11/25 10:03:49;;;;;;;10.52;3.53;;;10.50;99.90;;;;;;6239302;23;20024;-83
2022/11/25 10:06:20;;;;;;;;;;;10.50;99.90;;;;;;6257189;23;20434;-83
2022/11/25 10:08:56;;;;;;;7.05;3.00;;;10.60;99.90;;;;;;6221135;23;19986;-83
2022/11/25 10:11:52;;;;;;;9.52;2.75;;;10.60;99.90;;;;;;6219532;23;20073;-83
2022/11/25 10:14:20;;;;;;;11.68;3.30;;;10.70;99.90;;;;;;6246263;22;20418;-83
2022/11/25 10:16:56;;;;;;;11.18;3.22;;;10.60;99.90;;;;;;6219674;23;20014;-83
2022/11/25 10:19:49;;;;;;;11.52;3.70;;;10.70;99.90;;;;;;6220997;23;20086;-82
2022/11/25 10:22:36;;;;;;;11.75;3.35;;;10.80;99.90;;;;;;6219615;23;20008;-85
2022/11/25 10:25:23;;;;;;;10.25;4.18;;;10.90;99.90;;;;;;6219543;23;20437;-85
2022/11/25 10:27:56;;;;;;;11.15;3.70;;;10.90;99.90;;;;;;6219165;23;20464;-84
2022/11/25 10:30:26;;;;;;;10.90;3.45;;;11.00;99.90;;;;;;6218950;23;20004;-87
2022/11/25 10:33:12;;;;;;;9.57;3.55;;;11.00;99.90;;;;;;6217836;23;20014;-83
2022/11/25 10:36:05;;;;;;;10.35;3.63;;;11.10;99.90;;;;;;6218024;23;20004;-84
2022/11/25 10:38:44;;;;;;;10.90;2.97;;;11.10;99.90;;;;;;6204565;23;20061;-84
2022/11/25 10:41:17;;;;;;;11.63;3.80;;;11.20;99.90;;;;;;6219334;23;20004;-86
2022/11/25 10:43:46;;;;;;;9.73;3.22;;;11.30;99.90;;;;;;6219139;23;20027;-87
2022/11/25 10:46:26;;;;;;;8.55;3.47;;;11.30;99.90;;;;;;6219768;23;20000;-86
2022/11/25 10:49:13;;;;;;;8.45;2.97;;;11.40;99.90;;;;;;6245928;23;20200;-85
2022/11/25 10:51:45;;;;;;;11.48;3.42;;;11.40;99.90;;;;;;6218685;23;20005;-85
2022/11/25 10:54:25;;;;;;;9.40;2.97;;;11.50;99.90;;;;;;6219973;23;20000;-85
2022/11/25 10:57:00;;;;;;;13.85;3.35;;;11.60;99.90;;;;;;6219574;23;20050;-84
2022/11/25 10:59:28;;;;;;;8.98;3.67;;;11.60;99.90;;;;;;6219539;23;20043;-84
2022/11/25 11:02:18;;;;;;;7.53;2.90;;;11.70;99.90;;;;;;6219458;23;20028;-85
2022/11/25 11:04:56;;;;;;;10.30;2.97;;;11.80;99.90;;;;;;6218867;23;20008;-85
2022/11/25 11:07:23;;;;;;;9.80;3.72;;;11.90;99.90;;;;;;6219299;23;20334;-85
2022/11/25 11:09:48;;;;;;;10.68;2.47;;;11.90;99.90;;;;;;6218951;23;20271;-85
2022/11/25 11:12:28;;;;;;;11.00;2.92;;;12.00;99.90;;;;;;6246192;23;20004;-85
2022/11/25 11:15:21;;;;;;;8.73;2.80;;;12.10;99.90;;;;;;6218796;23;20050;-84
2022/11/25 11:17:47;;;;;;;10.27;2.83;;;12.20;99.90;;;;;;6219065;23;20414;-85
2022/11/25 11:20:20;;;;;;;9.10;3.03;;;12.30;99.90;;;;;;6194265;23;20011;-85
2022/11/25 11:23:12;;;;;;;8.75;2.88;;;12.40;99.90;;;;;;6219149;23;20418;-85
2022/11/25 11:25:41;;;;;;;7.50;2.70;;;12.50;99.90;;;;;;6219198;23;20044;-85
2022/11/25 11:28:37;;;;;;;11.90;2.67;;;12.60;99.90;;;;;;6219433;23;20004;-84
2022/11/25 11:31:07;;;;;;;9.30;2.65;;;12.70;99.90;;;;;;6219148;23;20134;-84
2022/11/25 11:33:47;;;;;;;11.35;2.80;;;12.70;99.90;;;;;;6219030;23;20077;-84
2022/11/25 11:36:31;;;;;;;36.67;3.90;;;12.80;99.90;;;;;;6218606;23;20011;-84
2022/11/25 11:39:21;;;;;;;9.98;2.92;;;12.90;99.90;;;;;;6245474;23;20290;-84
2022/11/25 11:42:11;;;;;;;8.15;2.60;;;13.00;99.90;;;;;;6218574;23;20005;-85
2022/11/25 11:44:56;;;;;;;9.80;2.42;;;13.00;99.90;;;;;;6248378;22;20004;-84
2022/11/25 11:47:45;;;;;;;11.50;2.35;;;13.10;99.90;;;;;;6249400;23;20008;-84
2022/11/25 11:50:19;;;;;;;10.85;3.35;;;13.10;99.90;;;;;;6222422;23;20038;-84
2022/11/25 11:53:03;;;;;;;12.35;3.10;;;13.20;99.90;;;;;;6222006;23;20011;-85
2022/11/25 11:56:04;;;;;;;8.23;2.55;;;13.20;99.90;;;;;;6249055;23;19996;-85
2022/11/25 11:59:09;;;;;;;;;;;13.30;99.90;;;;;;6223002;23;20004;-85
2022/11/25 12:01:58;;;;;;;12.18;2.35;;;13.30;99.90;;;;;;6102645;23;19905;-85
2022/11/25 12:04:29;;;;;;;7.03;2.33;;;13.40;99.90;;;;;;6102720;23;20345;-85
2022/11/25 12:07:06;;;;;;;;;;;13.50;99.90;;;;;;6208599;23;20434;-85
2022/11/25 12:09:37;;;;;;;12.98;2.80;;;13.50;99.90;;;;;;6249458;23;19899;-85
2022/11/25 12:12:05;;;;;;;11.68;2.72;;;13.60;99.90;;;;;;6222057;23;20008;-85
2022/11/25 12:14:40;;;;;;;13.07;3.03;;;13.70;99.90;;;;;;6222291;23;20012;-85
2022/11/25 12:17:18;;;;;;;13.90;2.83;;;13.70;99.90;;;;;;6224524;23;20087;-84
2022/11/25 12:19:52;;;;;;;9.93;2.33;;;13.80;99.90;;;;;;6249946;23;20029;-89
2022/11/25 12:22:42;;;;;;;10.52;2.38;;;13.90;99.90;;;;;;6222230;23;20334;-84
2022/11/25 12:25:22;;;;;;;15.02;3.28;;;14.10;99.90;;;;;;6248340;23;20008;-84
2022/11/25 12:27:57;;;;;;;19.40;3.30;;;14.20;99.90;;;;;;6221837;23;20496;-85
2022/11/25 12:30:24;;;;;;;8.48;2.50;;;14.30;99.90;;;;;;6222493;23;20307;-84
2022/11/25 12:32:57;;;;;;;6.53;2.25;;;14.30;99.90;;;;;;6221712;23;20008;-85
2022/11/25 12:35:39;;;;;;;11.40;3.15;;;14.40;99.90;;;;;;6248802;23;19996;-85
2022/11/25 12:38:29;;;;;;;12.70;3.45;;;14.50;99.90;;;;;;6221000;23;20134;-85
2022/11/25 12:41:12;;;;;;;10.68;2.45;;;14.50;99.90;;;;;;6248560;23;20049;-85
2022/11/25 12:43:54;;;;;;;13.73;3.10;;;14.60;99.90;;;;;;6249255;23;20024;-84
2022/11/25 12:46:33;;;;;;;11.00;3.05;;;14.60;99.90;;;;;;6249175;23;20004;-83
2022/11/25 12:49:00;;;;;;;12.90;3.08;;;14.60;99.90;;;;;;6221988;23;20011;-85
2022/11/25 12:51:26;;;;;;;9.50;2.55;;;14.60;99.90;;;;;;6222168;23;20008;-84
2022/11/25 12:54:29;;;;;;;8.20;2.05;;;14.50;99.90;;;;;;6222297;23;20079;-86
2022/11/25 12:57:24;;;;;;;14.32;2.90;;;14.50;99.90;;;;;;6220071;23;20517;-85
2022/11/25 13:00:25;;;;;;;15.23;2.70;;;14.50;99.90;;;;;;6220508;23;19996;-86
2022/11/25 13:03:28;;;;;;;9.57;2.70;;;14.50;99.90;;;;;;6246499;22;20103;-84
2022/11/25 13:06:20;;;;;;;12.68;3.05;;;14.60;99.90;;;;;;6220219;23;20031;-85
2022/11/25 13:09:21;;;;;;;12.75;2.58;;;14.70;99.90;;;;;;6214874;23;20079;-85
2022/11/25 13:12:20;;;;;;;11.48;2.53;;;14.80;99.90;;;;;;6220043;23;20004;-85
2022/11/25 13:15:07;;;;;;;8.75;2.85;;;14.80;99.90;;;;;;6219731;23;20090;-85
2022/11/25 13:17:38;;;;;;;12.88;3.15;;;14.80;99.90;;;;;;6219417;23;20000;-89
2022/11/25 13:20:26;;;;;;;8.30;1.98;;;14.80;99.90;;;;;;6220297;23;20004;-85